This is the latest recevied weather packets stored in our database for station/object NG7N. If no packets are shown the sender has not sent any weather packets the latest 10 day(s).
| Time | Temp. | Humidity | Pressure | Rain* | Wind** | Luminosity | Snow |
|---|---|---|---|---|---|---|---|
| 1777661963 | 15° C | 71% | 1016.5 hPa | 0 mm | - | - | - |
| 1777660163 | 15° C | 70% | 1016.7 hPa | 0 mm | - | - | - |
| 1777659563 | 15.56° C | 69% | 1016.7 hPa | 0 mm | - | - | - |
| 1777651763 | 13.33° C | 81% | 1017.3 hPa | 0 mm | - | - | - |
| 1777648163 | 12.22° C | 81% | 1017.3 hPa | 0 mm | - | - | - |
| 1777645763 | 11.67° C | 84% | 1017.2 hPa | 0 mm | - | - | - |
| 1777635563 | 11.11° C | 84% | 1016.4 hPa | 0 mm | - | - | - |
| 1777626562 | 12.78° C | 79% | 1016.3 hPa | 0 mm | - | - | - |
| 1777625363 | 13.33° C | 74% | 1016.3 hPa | 0 mm | - | - | - |
| 1777621763 | 13.33° C | 75% | 1016.5 hPa | 0 mm | - | - | - |
| 1777606762 | 17.22° C | 65% | 1016.1 hPa | 0 mm | - | - | - |
| 1777583962 | 18.89° C | 62% | 1018.6 hPa | 0 mm | - | - | - |
| 1777582162 | 17.78° C | 64% | 1018.8 hPa | 0 mm | - | - | - |
| 1777575561 | 16.11° C | 67% | 1019.8 hPa | 0 mm | - | - | - |
| 1777573161 | 15.56° C | 73% | 1020.2 hPa | 0 mm | - | - | - |
| 1777570161 | 14.44° C | 74% | 1020.8 hPa | 0 mm | - | - | - |
| 1777567162 | 12.78° C | 78% | 1020.9 hPa | 0 mm | - | - | - |
| 1777566562 | 12.78° C | 80% | 1021 hPa | 0 mm | - | - | - |
| 1777565362 | 12.22° C | 78% | 1021.2 hPa | 0 mm | - | - | - |
| 1777564761 | 12.78° C | 77% | 1021.2 hPa | 0 mm | - | - | - |
| 1777563562 | 12.22° C | 80% | 1021.4 hPa | 0 mm | - | - | - |
| 1777563296 | 12.22° C | 81% | 1021.4 hPa | 0 mm | - | - | - |
| 1777563262 | 12.22° C | 81% | 1021.4 hPa | 0 mm | - | - | - |
| 1777562996 | 11.67° C | 80% | 1021.4 hPa | 0 mm | - | - | - |
| 1777562962 | 11.67° C | 80% | 1021.4 hPa | 0 mm | - | - | - |
* Rain latest hour (hover to see other rain measurements)
** Current wind speed in m/s (hover to see current wind gust speed)